Time;durP1;ratioP1;P1;durP2;ratioP2;P2;SDS_P1;SDS_P2;PMS_P1;PMS_P2;Temp;Humidity;BMP_temperature;BMP_pressure;BME280_temperature;BME280_humidity;BME280_pressure;Samples;Min_cycle;Max_cycle;Signal;HPM_P1;HPM_P2
2021/12/24 00:00:27;;;;;;;71.97;43.00;;;7.80;99.90;;;;;;5071147;28;20028;-60
2021/12/24 00:02:54;;;;;;;63.28;40.45;;;7.80;99.90;;;;;;5071725;28;20025;-60
2021/12/24 00:05:20;;;;;;;70.68;43.03;;;7.80;99.90;;;;;;5073923;28;20519;-60
2021/12/24 00:07:46;;;;;;;60.85;38.72;;;7.80;99.90;;;;;;5052662;28;20048;-60
2021/12/24 00:10:13;;;;;;;63.05;40.40;;;7.80;99.90;;;;;;5073933;28;20048;-60
2021/12/24 00:12:44;;;;;;;60.47;39.03;;;7.80;99.90;;;;;;5073548;28;20848;-60
2021/12/24 00:15:38;;;;;;;61.30;39.65;;;7.80;99.90;;;;;;5053707;28;20025;-60
2021/12/24 00:18:08;;;;;;;64.05;39.55;;;7.90;99.90;;;;;;5070502;28;20024;-60
2021/12/24 00:21:47;;;;;;;60.80;37.03;;;7.90;99.90;;;;;;5073705;28;20518;-59
2021/12/24 00:37:19;;;;;;;52.28;35.65;;;8.00;99.90;;;;;;5074542;28;20486;-60
2021/12/24 00:40:10;;;;;;;58.03;37.50;;;8.00;99.90;;;;;;5074336;28;20029;-60
2021/12/24 00:42:32;;;;;;;54.97;36.10;;;8.00;99.90;;;;;;5074423;28;20491;-60
2021/12/24 00:44:58;;;;;;;61.65;37.95;;;8.10;99.90;;;;;;5058875;28;20036;-60
2021/12/24 00:47:25;;;;;;;54.55;35.45;;;8.10;99.90;;;;;;5076828;28;20020;-60
2021/12/24 00:49:51;;;;;;;56.88;36.33;;;8.10;99.90;;;;;;5071461;28;20048;-60
2021/12/24 00:55:09;;;;;;;51.47;33.95;;;8.20;99.90;;;;;;5056392;28;20813;-60
2021/12/24 00:57:37;;;;;;;48.97;34.38;;;8.20;99.90;;;;;;5075422;28;20572;-60
2021/12/24 01:00:11;;;;;;;52.97;34.78;;;8.20;99.90;;;;;;5080219;28;20024;-60
2021/12/24 01:02:37;;;;;;;47.70;33.63;;;8.20;99.90;;;;;;5074000;28;20032;-60
2021/12/24 01:05:03;;;;;;;47.65;32.10;;;8.20;99.90;;;;;;5073786;28;21585;-60
2021/12/24 01:07:28;;;;;;;44.53;31.15;;;8.20;99.90;;;;;;5070479;28;20024;-60
2021/12/24 01:09:54;;;;;;;44.95;31.00;;;8.30;99.90;;;;;;5068241;28;20036;-60
2021/12/24 01:12:20;;;;;;;43.03;30.25;;;8.30;99.90;;;;;;5070866;28;20033;-60
2021/12/24 01:14:47;;;;;;;42.28;30.27;;;8.30;99.90;;;;;;5073722;28;20362;-60
2021/12/24 01:17:30;;;;;;;42.67;29.67;;;8.30;99.90;;;;;;5069672;28;20017;-60
2021/12/24 01:20:02;;;;;;;41.03;30.08;;;8.40;99.90;;;;;;5054418;28;20027;-60
2021/12/24 01:38:33;;;;;;;35.42;25.20;;;8.60;99.90;;;;;;5067746;28;20157;-60
2021/12/24 01:43:26;;;;;;;33.90;24.75;;;8.70;99.90;;;;;;5086217;28;20028;-60
2021/12/24 01:45:55;;;;;;;34.05;23.88;;;8.70;99.90;;;;;;5073512;28;20040;-60
2021/12/24 01:48:21;;;;;;;31.42;23.10;;;8.80;99.90;;;;;;5053729;28;20028;-60
2021/12/24 01:50:50;;;;;;;29.90;22.63;;;8.80;99.90;;;;;;5067689;28;20464;-60
2021/12/24 01:53:19;;;;;;;29.38;21.10;;;8.80;99.90;;;;;;5076778;28;20020;-60
2021/12/24 01:55:47;;;;;;;28.80;20.77;;;8.90;99.90;;;;;;5070804;28;20044;-60
2021/12/24 01:58:13;;;;;;;26.73;20.88;;;8.90;99.90;;;;;;5075365;28;20020;-60
2021/12/24 02:00:44;;;;;;;28.90;20.67;;;9.00;99.90;;;;;;5084476;28;20056;-60
2021/12/24 02:03:12;;;;;;;30.35;21.60;;;9.00;99.90;;;;;;5070531;28;20392;-60
2021/12/24 02:05:38;;;;;;;28.52;21.48;;;9.10;99.90;;;;;;5060493;28;20029;-60
2021/12/24 02:08:04;;;;;;;30.30;21.77;;;9.10;99.90;;;;;;5077363;28;20029;-60
2021/12/24 02:10:30;;;;;;;27.45;21.00;;;9.10;99.90;;;;;;5074459;28;20090;-60
2021/12/24 02:12:56;;;;;;;31.95;22.55;;;9.10;99.90;;;;;;5077839;28;20061;-60
2021/12/24 02:28:48;;;;;;;41.40;27.15;;;9.30;99.90;;;;;;5074190;28;20027;-60
2021/12/24 02:31:20;;;;;;;44.78;27.85;;;9.30;99.90;;;;;;5074009;28;20020;-60
2021/12/24 02:33:46;;;;;;;43.85;29.02;;;9.30;99.90;;;;;;5073685;28;20036;-60
2021/12/24 02:36:12;;;;;;;44.67;29.45;;;9.30;99.90;;;;;;5077761;28;20044;-60
2021/12/24 02:38:38;;;;;;;44.17;29.25;;;9.40;99.90;;;;;;5072726;28;20044;-60
2021/12/24 02:41:05;;;;;;;46.95;30.33;;;9.40;99.90;;;;;;5073720;28;20589;-60
2021/12/24 02:43:31;;;;;;;54.60;31.08;;;9.40;99.90;;;;;;5073530;28;20036;-60
2021/12/24 02:45:58;;;;;;;48.28;31.33;;;9.40;99.90;;;;;;5073651;28;20024;-60
2021/12/24 02:54:01;;;;;;;50.20;32.83;;;9.50;99.90;;;;;;5071393;28;20494;-61
2021/12/24 02:56:32;;;;;;;53.60;34.28;;;9.50;99.90;;;;;;5079263;28;20052;-60
2021/12/24 02:59:05;;;;;;;54.53;34.42;;;9.50;99.90;;;;;;5076367;28;20039;-61
2021/12/24 03:01:43;;;;;;;55.38;34.15;;;9.50;99.90;;;;;;5066692;28;20028;-61
2021/12/24 03:04:09;;;;;;;52.50;33.92;;;9.60;99.90;;;;;;5075958;28;20029;-60
2021/12/24 03:06:39;;;;;;;51.67;34.40;;;9.60;99.90;;;;;;5077641;28;20040;-60
2021/12/24 03:09:18;;;;;;;51.55;33.22;;;9.60;99.90;;;;;;5073702;28;20032;-61
2021/12/24 03:11:46;;;;;;;50.17;33.30;;;9.60;99.90;;;;;;5070374;28;20468;-61
2021/12/24 03:14:14;;;;;;;53.70;33.50;;;9.60;99.90;;;;;;5052249;28;20035;-61
2021/12/24 03:16:40;;;;;;;56.63;34.60;;;9.60;99.90;;;;;;5073250;28;20121;-61
2021/12/24 03:19:08;;;;;;;49.53;32.25;;;9.60;99.90;;;;;;5077268;28;20119;-61
2021/12/24 03:21:48;;;;;;;45.80;32.05;;;9.60;99.90;;;;;;5068867;28;20051;-60
2021/12/24 03:26:45;;;;;;;48.15;30.92;;;9.70;99.90;;;;;;5072833;28;20031;-61
2021/12/24 03:29:11;;;;;;;50.08;29.98;;;9.70;99.90;;;;;;5075890;28;20034;-60
2021/12/24 03:31:38;;;;;;;50.38;31.02;;;9.70;99.90;;;;;;5073163;28;20032;-60
2021/12/24 03:34:09;;;;;;;38.47;27.25;;;9.70;99.90;;;;;;5070072;28;20036;-60
2021/12/24 03:36:35;;;;;;;43.08;29.02;;;9.70;99.90;;;;;;5078646;28;20025;-61
2021/12/24 03:39:03;;;;;;;47.45;28.67;;;9.70;99.90;;;;;;5072233;28;20377;-60
2021/12/24 03:41:28;;;;;;;44.70;29.23;;;9.70;99.90;;;;;;5081087;28;20035;-61
2021/12/24 03:43:54;;;;;;;39.72;26.60;;;9.70;99.90;;;;;;5072656;28;20028;-61
2021/12/24 03:46:27;;;;;;;47.00;26.10;;;9.70;99.90;;;;;;5072594;28;20043;-61
2021/12/24 03:48:59;;;;;;;42.10;26.90;;;9.70;99.90;;;;;;5073393;28;20098;-60
2021/12/24 03:51:45;;;;;;;39.50;25.40;;;9.70;99.90;;;;;;5069616;28;20024;-60
2021/12/24 03:56:55;;;;;;;33.20;22.55;;;9.70;99.90;;;;;;5072771;28;20055;-61
2021/12/24 03:59:21;;;;;;;33.28;21.10;;;9.70;99.90;;;;;;5069568;28;20477;-60
2021/12/24 04:01:46;;;;;;;32.75;20.33;;;9.70;99.90;;;;;;5059635;28;20025;-61
2021/12/24 04:04:12;;;;;;;31.77;20.00;;;9.80;99.90;;;;;;5075953;28;20024;-61
2021/12/24 04:06:38;;;;;;;32.90;19.05;;;9.80;99.90;;;;;;5072622;28;20032;-60
2021/12/24 04:09:06;;;;;;;32.53;18.90;;;9.70;99.90;;;;;;5072921;28;20518;-61
2021/12/24 04:11:31;;;;;;;28.98;17.42;;;9.80;99.90;;;;;;5072027;28;20672;-60
2021/12/24 04:13:57;;;;;;;25.98;16.63;;;9.70;99.90;;;;;;5070996;28;20020;-60
2021/12/24 04:16:23;;;;;;;26.67;16.02;;;9.80;99.90;;;;;;5073173;28;20059;-60
2021/12/24 04:19:00;;;;;;;25.67;14.75;;;9.70;99.90;;;;;;5074478;28;20099;-60
2021/12/24 04:26:57;;;;;;;25.60;13.75;;;9.80;99.90;;;;;;5073488;28;20835;-61
2021/12/24 04:29:22;;;;;;;26.50;14.55;;;9.80;99.90;;;;;;5074053;28;20024;-60
2021/12/24 04:31:57;;;;;;;22.02;13.45;;;9.80;99.90;;;;;;5077423;28;20755;-60
2021/12/24 04:34:26;;;;;;;25.55;13.15;;;9.80;99.90;;;;;;5068994;28;20425;-61
2021/12/24 04:37:35;;;;;;;25.42;12.05;;;9.80;99.90;;;;;;5062184;28;20031;-61
2021/12/24 05:01:17;;;;;;;22.30;11.65;;;9.80;99.90;;;;;;5068868;28;20074;-61
2021/12/24 05:02:04;;;;;;;18.67;10.68;;;9.80;99.90;;;;;;5079522;28;20624;-61
2021/12/24 05:04:33;;;;;;;24.20;10.18;;;9.80;99.90;;;;;;5070997;28;20393;-61
2021/12/24 05:07:09;;;;;;;19.90;10.07;;;9.70;99.90;;;;;;5052855;28;20103;-61
2021/12/24 05:09:38;;;;;;;22.75;9.63;;;9.80;99.90;;;;;;5068440;28;20255;-61
2021/12/24 05:12:05;;;;;;;22.67;10.40;;;9.70;99.90;;;;;;5071163;28;20096;-61
2021/12/24 05:14:31;;;;;;;22.20;10.13;;;9.70;99.90;;;;;;5070952;28;20464;-61
2021/12/24 05:17:18;;;;;;;18.58;9.75;;;9.80;99.90;;;;;;5056508;28;20107;-60
2021/12/24 05:22:30;;;;;;;17.38;10.27;;;9.70;99.90;;;;;;5074076;28;20055;-61
2021/12/24 05:24:57;;;;;;;24.05;10.70;;;9.70;99.90;;;;;;5052747;28;20025;-61
2021/12/24 05:27:23;;;;;;;21.65;9.60;;;9.70;99.90;;;;;;5073004;28;20073;-61
2021/12/24 05:29:48;;;;;;;22.08;10.27;;;9.60;99.90;;;;;;5050194;28;20024;-61
2021/12/24 05:32:14;;;;;;;15.70;9.02;;;9.60;99.90;;;;;;5070761;28;20123;-61
2021/12/24 05:34:39;;;;;;;19.45;9.38;;;9.60;99.90;;;;;;5069719;28;20101;-61
2021/12/24 05:37:05;;;;;;;19.05;9.45;;;9.70;99.90;;;;;;5071646;28;20028;-61
2021/12/24 05:39:30;;;;;;;19.70;10.23;;;9.70;99.90;;;;;;5052604;28;20029;-60
2021/12/24 05:41:56;;;;;;;15.68;8.63;;;9.70;99.90;;;;;;5067283;28;20021;-60
2021/12/24 05:44:52;;;;;;;16.98;8.60;;;9.70;99.90;;;;;;5078309;28;20032;-61
2021/12/24 05:47:17;;;;;;;20.05;8.68;;;9.70;99.90;;;;;;5073216;28;20066;-60
2021/12/24 05:49:43;;;;;;;19.05;9.32;;;9.70;99.90;;;;;;5071735;28;20056;-61
2021/12/24 05:52:08;;;;;;;18.48;8.68;;;9.70;99.90;;;;;;5077318;28;20074;-61
2021/12/24 05:54:34;;;;;;;15.27;8.07;;;9.70;99.90;;;;;;5070445;28;20392;-60
2021/12/24 05:56:59;;;;;;;23.63;9.20;;;9.60;99.90;;;;;;5072415;28;20035;-60
2021/12/24 05:59:25;;;;;;;17.67;8.68;;;9.70;99.90;;;;;;5068657;28;20115;-60
2021/12/24 06:01:51;;;;;;;25.25;9.50;;;9.70;99.90;;;;;;5073708;28;20106;-60
2021/12/24 06:04:16;;;;;;;15.93;7.72;;;9.70;99.90;;;;;;5069633;28;20100;-61
2021/12/24 06:06:42;;;;;;;15.93;8.45;;;9.70;99.90;;;;;;5070386;28;20472;-60
2021/12/24 06:09:07;;;;;;;21.05;8.70;;;9.70;99.90;;;;;;5073195;28;20032;-60
2021/12/24 06:11:33;;;;;;;22.02;8.68;;;9.60;99.90;;;;;;5067657;28;20064;-60
2021/12/24 06:14:06;;;;;;;20.25;8.40;;;9.60;99.90;;;;;;5070662;28;20395;-61
2021/12/24 06:16:35;;;;;;;20.77;7.93;;;9.60;99.90;;;;;;5068472;28;20025;-60
2021/12/24 06:19:01;;;;;;;20.90;7.70;;;9.60;99.90;;;;;;5069141;28;20897;-60
2021/12/24 06:21:27;;;;;;;15.80;7.60;;;9.60;99.90;;;;;;5075748;28;20051;-60
2021/12/24 06:23:52;;;;;;;17.45;7.68;;;9.60;99.90;;;;;;5070233;28;20032;-60
2021/12/24 06:26:18;;;;;;;16.55;7.53;;;9.60;99.90;;;;;;5075719;28;20455;-60
2021/12/24 06:28:43;;;;;;;17.80;8.00;;;9.60;99.90;;;;;;5073322;28;20027;-60
2021/12/24 06:31:09;;;;;;;25.25;8.38;;;9.60;99.90;;;;;;5067329;28;20024;-61
2021/12/24 06:33:50;;;;;;;20.42;7.90;;;9.50;99.90;;;;;;5069462;28;20093;-61
2021/12/24 06:36:22;;;;;;;15.48;6.82;;;9.50;99.90;;;;;;5071129;28;20091;-60
2021/12/24 06:38:47;;;;;;;23.90;6.95;;;9.50;99.90;;;;;;5071093;28;20029;-61
2021/12/24 06:41:34;;;;;;;19.23;7.10;;;9.50;99.90;;;;;;5071167;28;20033;-61
2021/12/24 06:44:00;;;;;;;19.80;7.10;;;9.50;99.90;;;;;;5070749;28;20392;-60
2021/12/24 06:46:26;;;;;;;22.17;7.65;;;9.50;99.90;;;;;;5071072;28;20032;-60
2021/12/24 06:48:56;;;;;;;15.95;7.57;;;9.40;99.90;;;;;;5068284;28;20017;-60
2021/12/24 06:51:39;;;;;;;20.70;7.75;;;9.40;99.90;;;;;;5091288;28;20020;-60
2021/12/24 06:54:05;;;;;;;19.58;8.07;;;9.40;99.90;;;;;;5074565;28;20297;-60
2021/12/24 06:56:31;;;;;;;19.58;8.07;;;9.40;99.90;;;;;;5094808;28;20115;-61
2021/12/24 06:58:56;;;;;;;19.42;8.02;;;9.40;99.90;;;;;;5093306;28;20036;-60
2021/12/24 07:01:22;;;;;;;22.27;9.98;;;9.40;99.90;;;;;;5093340;28;20107;-61
2021/12/24 07:03:48;;;;;;;21.77;9.52;;;9.40;99.90;;;;;;5093538;28;20476;-60
2021/12/24 07:06:13;;;;;;;21.00;9.38;;;9.40;99.90;;;;;;5079413;28;20037;-60
2021/12/24 07:08:39;;;;;;;25.23;9.88;;;9.30;99.90;;;;;;5093318;28;20114;-61
2021/12/24 07:11:05;;;;;;;22.70;9.18;;;9.30;99.90;;;;;;5094709;28;20036;-61
2021/12/24 07:13:31;;;;;;;18.90;10.13;;;9.30;99.90;;;;;;5094533;28;20032;-61
2021/12/24 07:15:56;;;;;;;21.45;9.15;;;9.30;99.90;;;;;;5094389;28;20032;-60
2021/12/24 07:18:22;;;;;;;23.63;9.40;;;9.30;99.90;;;;;;5094220;28;20024;-61
2021/12/24 07:20:48;;;;;;;25.02;10.68;;;9.30;99.90;;;;;;5092848;28;20055;-61
2021/12/24 07:23:14;;;;;;;18.23;9.40;;;9.30;99.90;;;;;;5094254;28;20407;-61
2021/12/24 07:25:39;;;;;;;18.35;10.07;;;9.20;99.90;;;;;;5094205;28;20027;-61
2021/12/24 07:28:05;;;;;;;25.35;10.60;;;9.20;99.90;;;;;;5094416;28;20036;-61
2021/12/24 07:30:31;;;;;;;23.23;11.70;;;9.20;99.90;;;;;;5094169;28;20020;-61
2021/12/24 07:33:14;;;;;;;27.67;14.15;;;9.20;99.90;;;;;;5094060;28;20024;-61
2021/12/24 07:35:45;;;;;;;28.00;12.90;;;9.20;99.90;;;;;;5075735;28;20028;-61
2021/12/24 07:38:13;;;;;;;24.98;11.05;;;9.20;99.90;;;;;;5093506;28;20476;-61
2021/12/24 07:40:40;;;;;;;24.00;11.73;;;9.20;99.90;;;;;;5074875;28;20035;-61
2021/12/24 07:43:09;;;;;;;33.47;13.02;;;9.20;99.90;;;;;;5092795;28;20468;-61
2021/12/24 07:45:36;;;;;;;21.75;11.48;;;9.20;99.90;;;;;;5092790;28;20040;-60
2021/12/24 07:48:13;;;;;;;22.83;11.55;;;9.20;99.90;;;;;;5087860;28;20017;-60
2021/12/24 07:53:16;;;;;;;21.98;11.23;;;9.20;99.90;;;;;;5087954;28;20069;-61
2021/12/24 07:55:55;;;;;;;;;;;;;;;;;;;;;
2021/12/24 07:58:21;;;;;;;22.50;12.57;;;9.20;99.90;;;;;;5093777;28;20034;-61
2021/12/24 08:00:47;;;;;;;24.38;11.88;;;9.20;99.90;;;;;;5093778;28;20095;-61
2021/12/24 08:03:13;;;;;;;26.08;11.82;;;9.20;99.90;;;;;;5093580;28;20030;-61
2021/12/24 08:05:40;;;;;;;25.45;13.35;;;9.20;99.90;;;;;;5092626;28;20486;-60
2021/12/24 08:08:07;;;;;;;26.33;12.63;;;9.20;99.90;;;;;;5093350;28;20028;-60
2021/12/24 08:10:34;;;;;;;25.50;12.40;;;9.20;99.90;;;;;;5075298;28;20066;-61
2021/12/24 08:13:01;;;;;;;19.27;10.98;;;9.20;99.90;;;;;;5093591;28;20073;-61
2021/12/24 08:15:27;;;;;;;21.13;10.50;;;9.20;99.90;;;;;;5093267;28;20031;-61
2021/12/24 08:17:53;;;;;;;20.38;10.48;;;9.20;99.90;;;;;;5093341;28;20028;-61
2021/12/24 08:20:24;;;;;;;18.42;9.65;;;9.20;99.90;;;;;;5093132;28;20047;-60
2021/12/24 08:22:51;;;;;;;22.95;10.88;;;9.20;99.90;;;;;;5074981;28;20047;-61
2021/12/24 08:25:18;;;;;;;26.70;11.40;;;9.20;99.90;;;;;;5093033;28;20020;-61
2021/12/24 08:27:44;;;;;;;23.13;10.55;;;9.30;99.90;;;;;;5093148;28;20016;-60
2021/12/24 08:30:10;;;;;;;17.63;9.60;;;9.30;99.90;;;;;;5093153;28;20032;-60
2021/12/24 08:32:40;;;;;;;19.35;10.10;;;9.30;99.90;;;;;;5092997;28;20040;-61
2021/12/24 08:35:12;;;;;;;19.20;9.63;;;9.30;99.90;;;;;;5090816;28;20233;-61
2021/12/24 08:37:38;;;;;;;21.67;9.82;;;9.30;99.90;;;;;;5092870;28;20016;-61
2021/12/24 08:40:04;;;;;;;27.20;9.75;;;9.30;99.90;;;;;;5092912;28;20099;-60
2021/12/24 08:42:42;;;;;;;17.45;8.65;;;9.30;99.90;;;;;;5092670;28;20024;-61
2021/12/24 08:45:08;;;;;;;21.67;8.07;;;9.30;99.90;;;;;;5092353;28;20028;-60
2021/12/24 08:47:44;;;;;;;16.90;8.98;;;9.30;99.90;;;;;;5091771;28;20506;-61
2021/12/24 08:50:13;;;;;;;22.67;9.63;;;9.30;99.90;;;;;;5092054;28;20383;-61
2021/12/24 08:52:38;;;;;;;23.05;10.18;;;9.40;99.90;;;;;;5092457;28;20101;-61
2021/12/24 08:55:04;;;;;;;25.13;9.27;;;9.30;99.90;;;;;;5092417;28;20431;-60
2021/12/24 08:57:30;;;;;;;22.30;9.13;;;9.40;99.90;;;;;;5092384;28;20549;-61
2021/12/24 08:59:55;;;;;;;20.55;8.70;;;9.40;99.90;;;;;;5092420;28;20036;-61
2021/12/24 09:02:21;;;;;;;21.73;9.65;;;9.30;99.90;;;;;;5092480;28;20103;-61
2021/12/24 09:04:47;;;;;;;20.52;8.60;;;9.40;99.90;;;;;;5074162;28;20475;-60
2021/12/24 09:07:12;;;;;;;19.08;8.18;;;9.40;99.90;;;;;;5092079;28;20035;-61
2021/12/24 09:09:38;;;;;;;17.38;7.90;;;9.40;99.90;;;;;;5092262;28;20103;-61
2021/12/24 09:12:04;;;;;;;20.58;8.48;;;9.40;99.90;;;;;;5092345;28;20066;-61
2021/12/24 09:14:29;;;;;;;21.33;9.15;;;9.40;99.90;;;;;;5092105;28;20120;-60
2021/12/24 09:16:55;;;;;;;18.35;7.85;;;9.40;99.90;;;;;;5091459;28;20115;-61
2021/12/24 09:19:28;;;;;;;18.15;8.15;;;9.40;99.90;;;;;;5091887;28;20476;-61
2021/12/24 09:21:55;;;;;;;23.95;8.65;;;9.40;99.90;;;;;;5091857;28;20092;-61
2021/12/24 09:24:23;;;;;;;23.08;8.35;;;9.40;99.90;;;;;;5092040;28;20500;-61
2021/12/24 09:26:56;;;;;;;21.55;8.52;;;9.40;99.90;;;;;;5091921;28;20058;-61
2021/12/24 09:29:22;;;;;;;21.02;8.95;;;9.40;99.90;;;;;;5092044;28;20110;-61
2021/12/24 09:31:50;;;;;;;25.48;8.50;;;9.40;99.90;;;;;;5091823;28;20108;-61
2021/12/24 09:34:16;;;;;;;18.40;8.48;;;9.40;99.90;;;;;;5090838;28;20035;-61
2021/12/24 09:36:41;;;;;;;22.13;8.82;;;9.40;99.90;;;;;;5090711;28;20384;-61
2021/12/24 09:39:08;;;;;;;14.45;8.18;;;9.50;99.90;;;;;;5090985;28;20024;-60
2021/12/24 09:41:34;;;;;;;21.00;9.88;;;9.50;99.90;;;;;;5091078;28;20020;-60
2021/12/24 09:44:00;;;;;;;24.23;9.07;;;9.50;99.90;;;;;;5073056;28;20165;-60
2021/12/24 09:46:28;;;;;;;17.67;9.02;;;9.50;99.90;;;;;;5087039;28;20369;-61
2021/12/24 09:48:54;;;;;;;18.02;8.63;;;9.50;99.90;;;;;;5072418;28;20020;-60
2021/12/24 09:51:23;;;;;;;18.05;9.90;;;9.50;99.90;;;;;;5090542;28;20499;-61
2021/12/24 09:53:49;;;;;;;24.30;8.97;;;9.50;99.90;;;;;;5090732;28;20082;-61
2021/12/24 09:56:15;;;;;;;24.58;9.55;;;9.50;99.90;;;;;;5090663;28;20035;-60
2021/12/24 09:58:40;;;;;;;22.95;8.95;;;9.50;99.90;;;;;;5072394;28;20024;-61
2021/12/24 10:01:06;;;;;;;20.40;8.52;;;9.50;99.90;;;;;;5090707;28;20046;-61
2021/12/24 10:03:34;;;;;;;23.10;10.25;;;9.50;99.90;;;;;;5090590;28;20056;-61
2021/12/24 10:06:00;;;;;;;24.60;9.55;;;9.50;99.90;;;;;;5090698;28;20036;-61
2021/12/24 10:08:26;;;;;;;21.17;8.20;;;9.50;99.90;;;;;;5090357;28;20093;-61
2021/12/24 10:11:04;;;;;;;20.52;8.27;;;9.50;99.90;;;;;;5090228;28;20043;-61
2021/12/24 10:13:43;;;;;;;18.70;8.10;;;9.60;99.90;;;;;;5089806;28;20023;-61
2021/12/24 10:16:22;;;;;;;22.92;8.77;;;9.60;99.90;;;;;;5090165;28;20103;-60
2021/12/24 10:18:52;;;;;;;19.30;8.80;;;9.60;99.90;;;;;;5090220;28;20386;-60
2021/12/24 10:21:23;;;;;;;26.20;9.43;;;9.60;99.90;;;;;;5087938;28;20071;-61
2021/12/24 10:24:12;;;;;;;19.13;7.82;;;9.60;99.90;;;;;;5089359;28;20039;-61
2021/12/24 10:26:44;;;;;;;23.40;8.27;;;9.60;99.90;;;;;;5089594;28;20028;-61
2021/12/24 10:29:11;;;;;;;24.05;8.32;;;9.60;99.90;;;;;;5092627;28;20103;-60
2021/12/24 10:31:44;;;;;;;20.08;7.93;;;9.70;99.90;;;;;;5095138;28;20024;-60
2021/12/24 10:34:17;;;;;;;23.55;7.82;;;9.70;99.90;;;;;;5095009;28;20024;-61
2021/12/24 10:36:49;;;;;;;20.67;7.88;;;9.70;99.90;;;;;;5077065;28;20040;-60
2021/12/24 10:39:15;;;;;;;18.48;6.55;;;9.70;99.90;;;;;;5094737;28;20028;-61
2021/12/24 10:41:47;;;;;;;18.25;7.35;;;9.70;99.90;;;;;;5095094;28;20028;-61
2021/12/24 10:44:21;;;;;;;13.38;5.68;;;9.70;99.90;;;;;;5094031;28;20099;-61
2021/12/24 10:47:07;;;;;;;20.90;7.00;;;9.70;99.90;;;;;;5094750;28;20442;-61
2021/12/24 10:52:42;;;;;;;15.95;6.05;;;9.80;99.90;;;;;;5094865;28;20476;-61
2021/12/24 10:55:09;;;;;;;14.27;5.32;;;9.80;99.90;;;;;;5094589;28;20032;-61
2021/12/24 10:57:36;;;;;;;17.77;5.78;;;9.80;99.90;;;;;;5094628;28;20039;-61
2021/12/24 11:00:23;;;;;;;14.55;5.93;;;9.70;99.90;;;;;;5094482;28;20024;-61
2021/12/24 11:02:57;;;;;;;17.27;6.22;;;9.80;99.90;;;;;;5094572;28;20016;-60
2021/12/24 11:05:24;;;;;;;16.52;7.13;;;9.80;99.90;;;;;;5094404;28;20602;-61
2021/12/24 11:07:51;;;;;;;18.63;5.95;;;9.80;99.90;;;;;;5094186;28;20024;-61
2021/12/24 11:10:19;;;;;;;22.38;6.88;;;9.80;99.90;;;;;;5094041;28;20016;-60
2021/12/24 11:12:53;;;;;;;18.38;7.15;;;9.80;99.90;;;;;;5094468;28;20023;-61
2021/12/24 11:15:39;;;;;;;14.95;6.57;;;9.90;99.90;;;;;;5094259;28;20484;-60
2021/12/24 11:18:46;;;;;;;19.23;7.05;;;9.80;99.90;;;;;;5094218;28;20373;-61
2021/12/24 11:21:18;;;;;;;20.42;8.02;;;9.90;99.90;;;;;;5049786;28;20043;-61
2021/12/24 11:23:43;;;;;;;26.30;8.48;;;9.80;99.90;;;;;;5093945;28;20050;-61
2021/12/24 11:26:12;;;;;;;19.42;7.47;;;9.80;99.90;;;;;;5093959;28;20032;-60
2021/12/24 11:28:39;;;;;;;24.63;8.88;;;9.80;99.90;;;;;;5094095;28;20020;-61
2021/12/24 11:31:18;;;;;;;20.02;8.95;;;9.90;99.90;;;;;;5075750;28;20469;-61
2021/12/24 11:33:46;;;;;;;23.17;9.73;;;9.90;99.90;;;;;;5094057;28;20016;-61
2021/12/24 11:36:15;;;;;;;18.13;8.38;;;9.90;99.90;;;;;;5093485;28;20020;-61
2021/12/24 11:38:48;;;;;;;18.98;7.35;;;9.90;99.90;;;;;;5093536;28;20115;-61
2021/12/24 11:41:17;;;;;;;20.05;8.40;;;9.90;99.90;;;;;;5092417;28;20459;-61
2021/12/24 11:43:46;;;;;;;18.33;8.37;;;9.90;99.90;;;;;;5093746;28;20084;-61
2021/12/24 11:46:21;;;;;;;20.65;8.55;;;9.90;99.90;;;;;;5093633;28;20020;-61
2021/12/24 11:48:50;;;;;;;17.13;8.60;;;9.90;99.90;;;;;;5075114;28;20043;-61
2021/12/24 11:51:40;;;;;;;19.60;8.73;;;9.90;99.90;;;;;;5093429;28;20511;-60
2021/12/24 11:54:07;;;;;;;20.23;9.07;;;9.90;99.90;;;;;;5093488;28;20028;-61
2021/12/24 11:56:54;;;;;;;19.65;9.32;;;9.90;99.90;;;;;;5093787;28;20098;-61
2021/12/24 11:59:37;;;;;;;25.10;10.88;;;9.90;99.90;;;;;;5093369;28;20398;-61
2021/12/24 12:02:02;;;;;;;20.10;9.30;;;9.90;99.90;;;;;;5075507;28;20020;-61
2021/12/24 12:04:28;;;;;;;21.15;8.73;;;9.90;99.90;;;;;;5093378;28;20044;-60
2021/12/24 12:07:16;;;;;;;23.00;9.23;;;9.90;99.90;;;;;;5092723;28;20043;-61
2021/12/24 12:09:43;;;;;;;18.85;9.10;;;10.00;99.90;;;;;;5093222;28;20117;-61
2021/12/24 12:12:13;;;;;;;20.98;10.23;;;10.00;99.90;;;;;;5074690;28;20024;-61
2021/12/24 12:14:38;;;;;;;19.98;10.20;;;10.00;99.90;;;;;;5093563;28;20472;-61
2021/12/24 12:17:06;;;;;;;19.73;10.40;;;9.90;99.90;;;;;;5074936;28;20035;-61
2021/12/24 12:22:17;;;;;;;19.77;10.13;;;10.00;99.90;;;;;;5092800;28;20056;-61
2021/12/24 12:24:58;;;;;;;23.48;10.07;;;10.00;99.90;;;;;;5092927;28;20046;-61
2021/12/24 12:27:50;;;;;;;20.67;10.10;;;10.00;99.90;;;;;;5092986;28;20059;-61
2021/12/24 12:30:22;;;;;;;24.45;9.95;;;10.00;99.90;;;;;;5092827;28;20024;-61
2021/12/24 12:32:50;;;;;;;20.17;9.85;;;10.00;99.90;;;;;;5092587;28;20020;-61
2021/12/24 12:35:15;;;;;;;20.27;9.70;;;10.00;99.90;;;;;;5092552;28;20020;-60
2021/12/24 12:37:43;;;;;;;20.50;10.80;;;10.00;99.90;;;;;;5092696;28;20024;-61
2021/12/24 12:40:17;;;;;;;18.55;10.98;;;10.00;99.90;;;;;;5092012;28;20136;-61
2021/12/24 12:42:53;;;;;;;22.73;10.43;;;10.10;99.90;;;;;;5071048;28;20028;-61
2021/12/24 12:45:41;;;;;;;28.75;11.00;;;10.10;99.90;;;;;;5087370;28;20396;-61
2021/12/24 12:48:09;;;;;;;21.75;10.30;;;10.10;99.90;;;;;;5078779;28;20092;-61
2021/12/24 12:50:37;;;;;;;20.67;10.60;;;10.10;99.90;;;;;;5092564;28;20027;-60
2021/12/24 12:53:21;;;;;;;18.35;10.30;;;10.10;99.90;;;;;;5091598;28;20035;-61
2021/12/24 12:55:48;;;;;;;21.00;10.07;;;10.20;99.90;;;;;;5092127;28;20089;-61
2021/12/24 12:58:19;;;;;;;15.23;9.73;;;10.30;99.90;;;;;;5074181;28;20472;-60
2021/12/24 13:01:10;;;;;;;22.27;10.43;;;10.30;99.90;;;;;;5074103;28;20399;-61
2021/12/24 13:03:57;;;;;;;29.15;11.27;;;10.30;99.90;;;;;;5092154;28;20201;-61
2021/12/24 13:06:45;;;;;;;19.75;11.23;;;10.20;99.90;;;;;;5091947;28;20455;-61
2021/12/24 13:09:13;;;;;;;18.52;11.15;;;10.20;99.90;;;;;;5058361;28;20032;-61
2021/12/24 13:11:45;;;;;;;22.17;11.38;;;10.20;99.90;;;;;;5071660;28;20070;-61
2021/12/24 13:14:13;;;;;;;22.63;11.98;;;10.20;99.90;;;;;;5071696;28;20074;-61
2021/12/24 13:16:45;;;;;;;18.98;10.23;;;10.20;99.90;;;;;;5071874;28;20024;-61
2021/12/24 13:24:52;;;;;;;21.83;10.70;;;10.20;99.90;;;;;;5071770;28;20506;-61
2021/12/24 13:27:18;;;;;;;;;;;10.20;99.90;;;;;;5053906;28;20024;-60
2021/12/24 13:29:45;;;;;;;20.48;9.93;;;10.20;99.90;;;;;;5071797;28;19908;-60
2021/12/24 13:32:11;;;;;;;20.98;10.95;;;10.10;99.90;;;;;;5071767;28;20423;-61
2021/12/24 13:34:37;;;;;;;18.27;9.75;;;10.20;99.90;;;;;;5071527;28;20499;-61
2021/12/24 13:37:12;;;;;;;18.80;10.77;;;10.20;99.90;;;;;;5071515;28;20028;-61
2021/12/24 13:39:46;;;;;;;18.33;9.32;;;10.20;99.90;;;;;;5071716;28;20039;-61
2021/12/24 13:42:12;;;;;;;23.52;9.57;;;10.10;99.90;;;;;;5071290;28;20469;-61
2021/12/24 13:44:40;;;;;;;21.13;9.52;;;10.10;99.90;;;;;;5071690;28;20029;-60
2021/12/24 13:47:10;;;;;;;18.95;9.07;;;10.10;99.90;;;;;;5054458;28;20029;-61
2021/12/24 13:49:58;;;;;;;18.20;8.35;;;10.10;99.90;;;;;;5091808;28;20008;-60
2021/12/24 13:55:25;;;;;;;15.52;7.72;;;10.10;99.90;;;;;;5091630;28;20548;-60
2021/12/24 13:58:05;;;;;;;16.65;6.68;;;10.00;99.90;;;;;;5091476;28;20511;-60
2021/12/24 14:00:36;;;;;;;18.80;7.38;;;10.10;99.90;;;;;;5088251;28;20021;-61
2021/12/24 14:03:08;;;;;;;15.45;6.95;;;10.10;99.90;;;;;;5090032;28;20028;-60
2021/12/24 14:05:47;;;;;;;20.10;7.07;;;10.10;99.90;;;;;;5075161;28;20059;-61
2021/12/24 14:08:15;;;;;;;20.50;7.03;;;10.10;99.90;;;;;;5071978;28;20027;-60
2021/12/24 14:10:42;;;;;;;14.95;5.97;;;10.10;99.90;;;;;;5095735;28;20063;-61
2021/12/24 14:13:27;;;;;;;18.95;6.78;;;10.10;99.90;;;;;;5095459;28;20024;-61
2021/12/24 14:16:17;;;;;;;15.52;6.43;;;10.00;99.90;;;;;;5095638;28;20020;-61
2021/12/24 14:18:56;;;;;;;17.17;6.15;;;10.00;99.90;;;;;;5095269;28;20024;-61
2021/12/24 14:24:10;;;;;;;11.38;4.80;;;10.00;99.90;;;;;;5095178;28;20491;-60
2021/12/24 14:26:37;;;;;;;14.55;5.65;;;10.00;99.90;;;;;;5077078;28;20027;-60
2021/12/24 14:29:07;;;;;;;15.40;5.43;;;10.00;99.90;;;;;;5095161;28;20032;-61
2021/12/24 14:32:04;;;;;;;14.30;4.70;;;10.00;99.90;;;;;;5077078;28;20383;-60
2021/12/24 14:34:32;;;;;;;19.55;6.18;;;9.90;99.90;;;;;;5094786;28;20035;-61
2021/12/24 14:37:03;;;;;;;15.73;5.15;;;9.90;99.90;;;;;;5095078;28;20032;-60
2021/12/24 14:39:37;;;;;;;15.02;5.15;;;9.80;99.90;;;;;;5090014;28;20038;-60
2021/12/24 14:42:16;;;;;;;17.25;5.32;;;9.90;99.90;;;;;;5091974;28;20095;-60